This is the latest recevied weather packets stored in our database for station/object N7DQ. If no packets are shown the sender has not sent any weather packets the latest 10 day(s).
| Time | Temp. | Humidity | Pressure | Rain* | Wind** | Luminosity | Snow |
|---|---|---|---|---|---|---|---|
| 1777912806 | 14.44° C | 81% | 1014 hPa | 0 mm | - | 216 W/m² | - |
| 1777909207 | 13.33° C | 83% | 1013.5 hPa | 0 mm | - | 146 W/m² | - |
| 1777905306 | 12.78° C | 86% | 1013 hPa | 0 mm | - | 113 W/m² | - |
| 1777905006 | 12.78° C | 86% | 1012.9 hPa | 0 mm | - | 81 W/m² | - |
| 1777904705 | 12.78° C | 86% | 1012.8 hPa | 0 mm | - | 83 W/m² | - |
| 1777904406 | 12.78° C | 86% | 1012.7 hPa | 0 mm | - | 69 W/m² | - |
| 1777904105 | 12.78° C | 86% | 1012.7 hPa | 0 mm | - | 54 W/m² | - |
| 1777903806 | 12.78° C | 86% | 1012.6 hPa | 0 mm | - | 69 W/m² | - |
| 1777903506 | 12.78° C | 86% | 1012.5 hPa | 0 mm | - | 97 W/m² | - |
| 1777903206 | 12.78° C | 87% | 1012.5 hPa | 0 mm | - | 88 W/m² | - |
| 1777902906 | 12.22° C | 87% | 1012.4 hPa | 0 mm | - | 74 W/m² | - |
| 1777902606 | 12.22° C | 88% | 1012.4 hPa | 0 mm | - | 60 W/m² | - |
| 1777902306 | 12.22° C | 88% | 1012.3 hPa | 0 mm | - | 40 W/m² | - |
| 1777902006 | 12.22° C | 88% | 1012.3 hPa | 0 mm | - | 32 W/m² | - |
| 1777901707 | 12.22° C | 88% | 1012.3 hPa | 0 mm | - | 30 W/m² | - |
| 1777878606 | 16.67° C | 74% | 1009 hPa | 0 mm | - | 0 W/m² | - |
| 1777826106 | 20° C | 66% | 1013.1 hPa | 0 mm | - | 533 W/m² | - |
| 1777807206 | 11.11° C | 91% | 1013.5 hPa | 0 mm | - | 0 W/m² | - |
| 1777803305 | 11.67° C | 90% | 1013.6 hPa | 0 mm | - | 0 W/m² | - |
| 1777803006 | 11.67° C | 90% | 1013.5 hPa | 0 mm | - | 0 W/m² | - |
| 1777802706 | 12.22° C | 90% | 1013.6 hPa | 0 mm | - | 0 W/m² | - |
| 1777802406 | 12.22° C | 89% | 1013.6 hPa | 0 mm | - | 0 W/m² | - |
| 1777802105 | 12.22° C | 89% | 1013.6 hPa | 0 mm | - | 0 W/m² | - |
| 1777801806 | 12.22° C | 89% | 1013.6 hPa | 0 mm | - | 0 W/m² | - |
| 1777801506 | 12.22° C | 90% | 1013.6 hPa | 0 mm | - | 0 W/m² | - |
* Rain latest hour (hover to see other rain measurements)
** Current wind speed in m/s (hover to see current wind gust speed)